createdAt,value
2018-11-01T00:02:29.748Z,100.00
2018-11-01T00:05:00.410Z,100.00
2018-11-01T00:07:31.233Z,100.00
2018-11-01T00:10:01.875Z,100.00
2018-11-01T00:12:32.471Z,100.00
2018-11-01T00:15:03.075Z,100.00
2018-11-01T00:17:33.940Z,100.00
2018-11-01T00:20:04.670Z,100.00
2018-11-01T00:22:35.271Z,100.00
2018-11-01T00:25:06.473Z,100.00
2018-11-01T00:27:37.078Z,100.00
2018-11-01T00:30:08.722Z,100.00
2018-11-01T00:32:39.461Z,100.00
2018-11-01T00:35:11.014Z,100.00
2018-11-01T00:37:41.595Z,100.00
2018-11-01T00:40:14.989Z,100.00
2018-11-01T00:42:46.413Z,100.00
2018-11-01T00:45:16.983Z,100.00
2018-11-01T00:47:47.579Z,100.00
2018-11-01T00:50:18.301Z,100.00
2018-11-01T00:52:48.695Z,100.00
2018-11-01T00:55:19.286Z,100.00
2018-11-01T00:57:49.800Z,100.00
2018-11-01T01:00:20.358Z,100.00
2018-11-01T01:02:50.882Z,100.00
2018-11-01T01:05:21.425Z,100.00
2018-11-01T01:07:52.192Z,100.00
2018-11-01T01:10:23.097Z,100.00
2018-11-01T01:12:54.331Z,100.00
2018-11-01T01:15:25.564Z,100.00
2018-11-01T01:17:56.211Z,100.00
2018-11-01T01:20:27.736Z,100.00
2018-11-01T01:22:58.443Z,100.00
2018-11-01T01:25:29.063Z,100.00
2018-11-01T01:27:59.808Z,100.00
2018-11-01T01:30:30.380Z,100.00
2018-11-01T01:33:00.918Z,100.00
2018-11-01T01:35:31.311Z,100.00
2018-11-01T01:38:01.731Z,100.00
2018-11-01T01:40:32.841Z,100.00
2018-11-01T01:43:03.573Z,100.00
2018-11-01T01:45:33.889Z,100.00
2018-11-01T01:48:04.258Z,100.00
2018-11-01T01:50:34.771Z,100.00
2018-11-01T01:53:05.442Z,100.00
2018-11-01T01:55:36.075Z,100.00
2018-11-01T01:58:06.608Z,100.00
2018-11-01T02:00:37.025Z,100.00
2018-11-01T02:03:07.652Z,100.00
2018-11-01T02:05:38.233Z,100.00
2018-11-01T02:08:08.704Z,100.00
2018-11-01T02:10:39.711Z,100.00
2018-11-01T02:13:10.042Z,100.00
2018-11-01T02:15:40.492Z,100.00
2018-11-01T02:18:11.081Z,100.00
2018-11-01T02:20:41.752Z,100.00
2018-11-01T02:23:12.300Z,100.00
2018-11-01T02:25:42.776Z,100.00
2018-11-01T02:28:18.521Z,100.00
2018-11-01T02:30:49.117Z,100.00
2018-11-01T02:33:19.574Z,100.00
2018-11-01T02:35:50.067Z,100.00
2018-11-01T02:38:20.756Z,100.00
2018-11-01T02:40:51.325Z,100.00
2018-11-01T02:43:21.868Z,100.00
2018-11-01T02:45:52.249Z,100.00
2018-11-01T02:48:23.436Z,100.00
2018-11-01T02:50:53.888Z,100.00
2018-11-01T02:53:24.456Z,100.00
2018-11-01T02:55:54.927Z,100.00
2018-11-01T02:58:25.546Z,100.00
2018-11-01T03:00:56.637Z,100.00
2018-11-01T03:03:27.211Z,100.00
2018-11-01T03:05:57.753Z,100.00
2018-11-01T03:08:28.189Z,100.00
2018-11-01T03:10:58.633Z,100.00
2018-11-01T03:13:29.206Z,100.00
2018-11-01T03:15:59.773Z,100.00
2018-11-01T03:18:30.303Z,100.00
2018-11-01T03:21:00.892Z,100.00
2018-11-01T03:23:31.521Z,100.00
2018-11-01T03:26:02.187Z,100.00
2018-11-01T03:28:32.633Z,100.00
2018-11-01T03:31:03.365Z,100.00
2018-11-01T03:33:33.835Z,100.00
2018-11-01T03:36:04.502Z,100.00
2018-11-01T03:38:36.126Z,100.00
2018-11-01T03:41:06.947Z,100.00
2018-11-01T03:43:38.124Z,100.00
2018-11-01T03:46:08.821Z,100.00
2018-11-01T03:48:39.444Z,100.00
2018-11-01T03:51:11.298Z,100.00
2018-11-01T03:53:41.982Z,100.00
2018-11-01T03:56:12.781Z,100.00
2018-11-01T03:58:43.348Z,100.00
2018-11-01T04:01:13.752Z,100.00
2018-11-01T04:03:44.337Z,100.00
2018-11-01T04:06:14.886Z,100.00
2018-11-01T04:08:45.323Z,100.00
2018-11-01T04:11:15.817Z,100.00
2018-11-01T04:13:46.740Z,100.00
2018-11-01T04:16:17.529Z,100.00
2018-11-01T04:18:48.016Z,100.00
2018-11-01T04:21:18.639Z,100.00
2018-11-01T04:23:49.306Z,100.00
2018-11-01T04:26:19.837Z,100.00
2018-11-01T04:28:50.459Z,100.00
2018-11-01T04:31:21.130Z,100.00
2018-11-01T04:33:51.634Z,100.00
2018-11-01T04:36:22.048Z,100.00
2018-11-01T04:38:52.751Z,100.00
2018-11-01T04:41:23.297Z,100.00
2018-11-01T04:43:53.934Z,100.00
2018-11-01T04:46:24.518Z,100.00
2018-11-01T04:48:54.987Z,100.00
2018-11-01T04:51:25.469Z,100.00
2018-11-01T04:53:55.971Z,99.05
2018-11-01T04:56:26.351Z,98.50
2018-11-01T04:58:56.900Z,98.34
2018-11-01T05:01:27.452Z,98.00
2018-11-01T05:03:58.028Z,97.84
2018-11-01T05:06:29.304Z,97.16
2018-11-01T05:08:59.619Z,97.41
2018-11-01T05:11:30.062Z,95.83
2018-11-01T05:14:00.566Z,95.87
2018-11-01T05:16:31.200Z,95.91
2018-11-01T05:19:01.602Z,95.73
2018-11-01T05:21:32.470Z,95.05
2018-11-01T05:24:03.720Z,94.53
2018-11-01T05:26:35.048Z,94.26
2018-11-01T05:29:05.690Z,94.40
2018-11-01T05:31:36.298Z,94.16
2018-11-01T05:34:07.016Z,92.19
2018-11-01T05:36:37.534Z,93.40
2018-11-01T05:39:12.035Z,92.75
2018-11-01T05:41:42.753Z,91.79
2018-11-01T05:44:13.261Z,92.70
2018-11-01T05:46:44.690Z,92.47
2018-11-01T05:49:15.228Z,93.51
2018-11-01T05:51:45.772Z,93.53
2018-11-01T05:54:16.707Z,94.52
2018-11-01T05:56:47.150Z,95.39
2018-11-01T05:59:17.696Z,95.57
2018-11-01T06:01:50.881Z,95.49
2018-11-01T06:04:21.699Z,93.66
2018-11-01T06:06:53.040Z,97.97
2018-11-01T06:09:28.541Z,100.00
2018-11-01T06:11:59.920Z,100.00
2018-11-01T06:14:30.454Z,100.00
2018-11-01T06:17:01.595Z,100.00
2018-11-01T06:19:32.306Z,100.00
2018-11-01T06:22:02.847Z,100.00
2018-11-01T06:24:33.334Z,100.00
2018-11-01T06:27:03.779Z,100.00
2018-11-01T06:29:34.310Z,100.00
2018-11-01T06:32:04.764Z,100.00
2018-11-01T06:34:39.200Z,100.00
2018-11-01T06:37:10.675Z,100.00
2018-11-01T06:39:41.109Z,100.00
2018-11-01T06:42:11.701Z,100.00
2018-11-01T06:44:42.447Z,100.00
2018-11-01T06:47:12.935Z,100.00
2018-11-01T06:49:43.577Z,100.00
2018-11-01T06:52:14.124Z,100.00
2018-11-01T06:54:44.689Z,100.00
2018-11-01T06:57:15.320Z,100.00
2018-11-01T06:59:46.196Z,100.00
2018-11-01T07:02:16.836Z,100.00
2018-11-01T07:04:47.660Z,100.00
2018-11-01T07:07:18.370Z,100.00
2018-11-01T07:09:49.022Z,100.00
2018-11-01T07:12:19.657Z,100.00
2018-11-01T07:14:50.319Z,100.00
2018-11-01T07:17:21.062Z,100.00
2018-11-01T07:19:51.411Z,100.00
2018-11-01T07:22:22.098Z,100.00
2018-11-01T07:24:52.723Z,100.00
2018-11-01T07:27:23.247Z,100.00
2018-11-01T07:29:53.894Z,100.00
2018-11-01T07:32:24.370Z,100.00
2018-11-01T07:34:54.989Z,100.00
2018-11-01T07:37:25.416Z,100.00
2018-11-01T07:39:55.941Z,100.00
2018-11-01T07:42:26.352Z,100.00
2018-11-01T07:44:56.934Z,100.00
2018-11-01T07:47:27.450Z,100.00
2018-11-01T07:49:58.448Z,100.00
2018-11-01T07:52:29.082Z,100.00
2018-11-01T07:55:00.155Z,100.00
2018-11-01T07:57:30.780Z,100.00
2018-11-01T08:00:01.559Z,100.00
2018-11-01T08:02:32.704Z,100.00
2018-11-01T08:05:04.012Z,100.00
2018-11-01T08:07:34.735Z,100.00
2018-11-01T08:10:06.568Z,100.00
2018-11-01T08:12:37.364Z,100.00
2018-11-01T08:15:11.781Z,100.00
2018-11-01T08:17:42.768Z,100.00
2018-11-01T08:20:14.592Z,100.00
2018-11-01T08:22:45.384Z,100.00
2018-11-01T08:25:16.359Z,100.00
2018-11-01T08:27:47.179Z,100.00
2018-11-01T08:30:19.127Z,100.00
2018-11-01T08:32:49.963Z,100.00
2018-11-01T08:35:22.232Z,100.00
2018-11-01T08:37:53.960Z,100.00
2018-11-01T08:40:26.879Z,100.00
2018-11-01T08:43:02.476Z,100.00
2018-11-01T08:45:35.775Z,100.00
2018-11-01T08:48:11.518Z,100.00
2018-11-01T08:50:43.962Z,100.00
2018-11-01T08:53:16.109Z,100.00
2018-11-01T08:55:50.199Z,100.00
2018-11-01T08:58:23.199Z,100.00
2018-11-01T09:00:55.567Z,100.00
2018-11-01T09:03:27.956Z,100.00
2018-11-01T09:06:00.439Z,100.00
2018-11-01T09:08:34.410Z,100.00
2018-11-01T09:11:07.028Z,100.00
2018-11-01T09:13:41.256Z,100.00
2018-11-01T09:16:14.178Z,100.00
2018-11-01T09:18:49.251Z,100.00
2018-11-01T09:21:21.536Z,100.00
2018-11-01T09:27:55.303Z,100.00
2018-11-01T09:30:27.677Z,100.00
2018-11-01T09:32:59.657Z,100.00
2018-11-01T09:35:32.978Z,100.00
2018-11-01T09:38:04.896Z,100.00
2018-11-01T09:40:36.504Z,100.00
2018-11-01T09:43:09.752Z,100.00
2018-11-01T09:45:41.817Z,100.00
2018-11-01T09:48:13.684Z,100.00
2018-11-01T09:50:45.461Z,100.00
2018-11-01T09:53:17.378Z,100.00
2018-11-01T09:55:49.188Z,100.00
2018-11-01T09:58:21.039Z,100.00
2018-11-01T10:00:52.982Z,100.00
2018-11-01T10:03:24.738Z,100.00
2018-11-01T10:05:57.526Z,100.00
2018-11-01T10:08:31.052Z,100.00
2018-11-01T10:11:53.614Z,100.00
2018-11-01T10:15:04.656Z,100.00
2018-11-01T10:17:38.008Z,100.00
2018-11-01T10:20:13.830Z,100.00
2018-11-01T10:22:46.087Z,100.00
2018-11-01T10:25:18.096Z,100.00
2018-11-01T10:27:50.696Z,100.00
2018-11-01T10:30:23.012Z,100.00
2018-11-01T10:32:55.320Z,100.00
2018-11-01T10:35:27.439Z,100.00
2018-11-01T10:38:00.463Z,100.00
2018-11-01T10:40:32.300Z,100.00
2018-11-01T10:43:06.823Z,100.00
2018-11-01T10:45:38.601Z,100.00
2018-11-01T10:48:12.485Z,100.00
2018-11-01T10:50:44.902Z,100.00
2018-11-01T10:53:17.827Z,100.00
2018-11-01T10:55:49.729Z,100.00
2018-11-01T10:58:22.561Z,100.00
2018-11-01T11:00:59.592Z,100.00
2018-11-01T11:03:32.320Z,100.00
2018-11-01T11:06:04.819Z,100.00
2018-11-01T11:08:38.374Z,100.00
2018-11-01T11:11:10.917Z,100.00
2018-11-01T11:16:58.543Z,100.00
2018-11-01T11:19:31.068Z,100.00
2018-11-01T11:22:02.880Z,100.00
2018-11-01T11:24:35.819Z,100.00
2018-11-01T11:27:13.471Z,100.00
2018-11-01T11:29:46.454Z,100.00
2018-11-01T11:32:19.453Z,100.00
2018-11-01T11:34:52.322Z,100.00
2018-11-01T11:37:24.454Z,100.00
2018-11-01T11:39:58.546Z,100.00
2018-11-01T11:42:30.244Z,100.00
2018-11-01T11:45:02.083Z,100.00
2018-11-01T11:47:33.916Z,100.00
2018-11-01T11:50:05.725Z,100.00
2018-11-01T11:52:37.467Z,100.00
2018-11-01T11:55:10.396Z,100.00
2018-11-01T11:57:42.126Z,100.00
2018-11-01T12:00:16.092Z,100.00
2018-11-01T12:02:47.828Z,100.00
2018-11-01T12:05:19.793Z,100.00
2018-11-01T12:07:51.704Z,100.00
2018-11-01T12:10:24.098Z,100.00
2018-11-01T12:12:56.532Z,100.00
2018-11-01T12:15:29.609Z,100.00
2018-11-01T12:18:01.720Z,100.00
2018-11-01T12:20:33.932Z,100.00
2018-11-01T12:23:05.792Z,100.00
2018-11-01T12:25:37.603Z,100.00
2018-11-01T12:28:09.621Z,100.00
2018-11-01T12:30:41.305Z,100.00
2018-11-01T12:33:13.002Z,100.00
2018-11-01T12:35:45.113Z,100.00
2018-11-01T12:38:17.690Z,100.00
2018-11-01T12:40:50.327Z,100.00
2018-11-01T12:43:22.163Z,100.00
2018-11-01T12:45:53.707Z,100.00
2018-11-01T12:48:25.548Z,100.00
2018-11-01T12:50:58.155Z,100.00
2018-11-01T12:53:30.783Z,100.00
2018-11-01T12:56:03.846Z,100.00
2018-11-01T12:58:35.621Z,100.00
2018-11-01T13:01:09.820Z,100.00
2018-11-01T13:03:42.356Z,100.00
2018-11-01T13:06:15.256Z,100.00
2018-11-01T13:08:47.046Z,100.00
2018-11-01T13:11:20.175Z,100.00
2018-11-01T13:13:53.080Z,100.00
2018-11-01T13:16:25.947Z,100.00
2018-11-01T13:18:59.297Z,98.32
2018-11-01T13:21:32.560Z,96.64
2018-11-01T13:24:04.904Z,98.49
2018-11-01T13:26:37.716Z,97.66
2018-11-01T13:29:10.054Z,100.00
2018-11-01T13:31:41.907Z,100.00
2018-11-01T13:34:13.937Z,100.00
2018-11-01T13:36:45.535Z,100.00
2018-11-01T13:39:17.631Z,100.00
2018-11-01T13:41:49.396Z,100.00
2018-11-01T13:44:21.182Z,100.00
2018-11-01T13:46:53.894Z,100.00
2018-11-01T13:49:25.578Z,100.00
2018-11-01T13:51:58.469Z,100.00
2018-11-01T13:54:30.932Z,100.00
2018-11-01T13:57:03.135Z,100.00
2018-11-01T13:59:35.299Z,100.00
2018-11-01T14:02:07.116Z,100.00
2018-11-01T14:04:39.493Z,100.00
2018-11-01T14:07:11.179Z,100.00
2018-11-01T14:09:44.114Z,100.00
2018-11-01T14:12:15.991Z,100.00
2018-11-01T14:14:48.308Z,100.00
2018-11-01T14:17:21.514Z,100.00
2018-11-01T14:19:53.924Z,100.00
2018-11-01T14:22:26.971Z,100.00
2018-11-01T14:24:58.986Z,100.00
2018-11-01T14:27:31.475Z,100.00
2018-11-01T14:30:03.339Z,100.00
2018-11-01T14:32:34.994Z,100.00
2018-11-01T14:35:07.545Z,100.00
2018-11-01T14:37:39.298Z,100.00
2018-11-01T14:40:13.336Z,100.00
2018-11-01T14:42:45.639Z,100.00
2018-11-01T14:45:17.669Z,100.00
2018-11-01T14:47:49.749Z,100.00
2018-11-01T14:50:21.859Z,100.00
2018-11-01T14:52:54.609Z,100.00
2018-11-01T14:55:26.510Z,100.00
2018-11-01T14:57:59.615Z,100.00
2018-11-01T15:00:31.017Z,100.00
2018-11-01T15:03:02.737Z,100.00
2018-11-01T15:05:34.356Z,100.00
2018-11-01T15:08:06.097Z,100.00
2018-11-01T15:10:37.848Z,100.00
2018-11-01T15:13:09.701Z,100.00
2018-11-01T15:15:41.462Z,100.00
2018-11-01T15:18:13.360Z,100.00
2018-11-01T15:20:45.952Z,100.00
2018-11-01T15:23:17.854Z,100.00
2018-11-01T15:25:49.882Z,100.00
2018-11-01T15:28:21.706Z,100.00
2018-11-01T15:30:53.680Z,100.00
2018-11-01T15:33:26.457Z,100.00
2018-11-01T15:35:59.202Z,100.00
2018-11-01T15:38:31.171Z,100.00
2018-11-01T15:41:06.612Z,100.00
2018-11-01T15:43:38.884Z,100.00
2018-11-01T15:46:11.733Z,100.00
2018-11-01T15:48:43.756Z,100.00
2018-11-01T15:51:15.955Z,100.00
2018-11-01T15:53:48.501Z,100.00
2018-11-01T15:56:20.309Z,100.00
2018-11-01T15:58:52.632Z,100.00
2018-11-01T16:01:25.420Z,100.00
2018-11-01T16:04:25.029Z,100.00
2018-11-01T16:06:57.312Z,100.00
2018-11-01T16:09:29.242Z,100.00
2018-11-01T16:12:01.709Z,100.00
2018-11-01T16:14:33.932Z,100.00
2018-11-01T16:17:06.087Z,100.00
2018-11-01T16:19:38.525Z,100.00
2018-11-01T16:22:10.530Z,100.00
2018-11-01T16:24:42.536Z,100.00
2018-11-01T16:27:14.575Z,100.00
2018-11-01T16:29:46.764Z,100.00
2018-11-01T16:32:18.908Z,100.00
2018-11-01T16:34:51.229Z,100.00
2018-11-01T16:37:24.261Z,100.00
2018-11-01T16:39:56.253Z,100.00
2018-11-01T16:42:28.272Z,100.00
2018-11-01T16:45:01.497Z,100.00
2018-11-01T16:47:33.808Z,100.00
2018-11-01T16:50:07.187Z,100.00
2018-11-01T16:52:40.504Z,100.00
2018-11-01T16:55:13.838Z,100.00
2018-11-01T16:57:49.146Z,100.00
2018-11-01T17:00:21.780Z,100.00
2018-11-01T17:02:55.469Z,100.00
2018-11-01T17:05:28.121Z,100.00
2018-11-01T17:08:00.879Z,100.00
2018-11-01T17:10:33.411Z,100.00
2018-11-01T17:13:06.495Z,100.00
2018-11-01T17:15:38.710Z,100.00
2018-11-01T17:18:12.264Z,100.00
2018-11-01T17:20:44.974Z,100.00
2018-11-01T17:23:17.648Z,100.00
2018-11-01T17:25:50.254Z,100.00
2018-11-01T17:28:22.628Z,100.00
2018-11-01T17:30:55.158Z,100.00
2018-11-01T17:33:27.254Z,100.00
2018-11-01T17:35:59.123Z,100.00
2018-11-01T17:38:31.591Z,100.00
2018-11-01T17:41:03.560Z,100.00
2018-11-01T17:43:36.846Z,100.00
2018-11-01T17:46:11.210Z,100.00
2018-11-01T17:48:43.933Z,100.00
2018-11-01T17:51:16.641Z,100.00
2018-11-01T17:53:49.897Z,100.00
2018-11-01T17:56:22.978Z,100.00
2018-11-01T17:58:56.003Z,100.00
2018-11-01T18:01:28.704Z,100.00
2018-11-01T18:04:02.246Z,100.00
2018-11-01T18:06:35.573Z,100.00
2018-11-01T18:09:11.841Z,100.00
2018-11-01T18:11:45.507Z,100.00
2018-11-01T18:14:19.644Z,100.00
2018-11-01T18:16:52.977Z,100.00
2018-11-01T18:19:26.463Z,100.00
2018-11-01T18:21:58.460Z,100.00
2018-11-01T18:24:31.937Z,100.00
2018-11-01T18:27:05.017Z,100.00
2018-11-01T18:29:38.195Z,100.00
2018-11-01T18:32:10.438Z,100.00
2018-11-01T18:34:43.512Z,100.00
2018-11-01T18:37:16.309Z,100.00
2018-11-01T18:39:49.915Z,100.00
2018-11-01T18:42:22.378Z,100.00
2018-11-01T18:44:55.415Z,100.00
2018-11-01T18:47:28.146Z,100.00
2018-11-01T18:50:01.549Z,100.00
2018-11-01T18:52:34.823Z,100.00
2018-11-01T18:55:09.761Z,100.00
2018-11-01T18:57:42.546Z,100.00
2018-11-01T19:00:17.243Z,100.00
2018-11-01T19:02:49.912Z,100.00
2018-11-01T19:05:25.192Z,100.00
2018-11-01T19:07:57.187Z,100.00
2018-11-01T19:10:32.583Z,100.00
2018-11-01T19:13:05.918Z,100.00
2018-11-01T19:15:39.251Z,100.00
2018-11-01T19:18:12.792Z,100.00
2018-11-01T19:20:46.019Z,100.00
2018-11-01T19:23:18.099Z,100.00
2018-11-01T19:25:52.493Z,100.00
2018-11-01T19:28:24.966Z,100.00
2018-11-01T19:30:58.407Z,100.00
2018-11-01T19:33:31.103Z,100.00
2018-11-01T19:36:06.066Z,100.00
2018-11-01T19:38:39.149Z,100.00
2018-11-01T19:41:12.404Z,100.00
2018-11-01T19:43:44.692Z,100.00
2018-11-01T19:46:18.437Z,100.00
2018-11-01T19:48:51.210Z,100.00
2018-11-01T19:51:26.302Z,100.00
2018-11-01T19:53:58.463Z,100.00
2018-11-01T19:56:32.173Z,100.00
2018-11-01T19:59:04.300Z,100.00
2018-11-01T20:01:37.669Z,100.00
2018-11-01T20:04:10.277Z,100.00
2018-11-01T20:06:42.766Z,100.00
2018-11-01T20:09:14.880Z,100.00
2018-11-01T20:11:47.538Z,100.00
2018-11-01T20:14:21.819Z,100.00
2018-11-01T20:16:55.070Z,100.00
2018-11-01T20:19:28.288Z,100.00
2018-11-01T20:22:01.693Z,100.00
2018-11-01T20:24:33.899Z,100.00
2018-11-01T20:27:08.051Z,100.00
2018-11-01T20:29:42.407Z,100.00
2018-11-01T20:32:15.751Z,100.00
2018-11-01T20:34:49.377Z,100.00
2018-11-01T20:37:22.137Z,100.00
2018-11-01T20:39:56.755Z,100.00
2018-11-01T20:42:30.866Z,100.00
2018-11-01T20:45:04.979Z,100.00
2018-11-01T20:47:38.349Z,100.00
2018-11-01T20:50:13.415Z,100.00
2018-11-01T20:52:48.290Z,100.00
2018-11-01T20:55:21.354Z,100.00
2018-11-01T20:57:58.621Z,100.00
2018-11-01T21:00:38.506Z,100.00
2018-11-01T21:03:10.978Z,100.00
2018-11-01T21:05:50.403Z,100.00
2018-11-01T21:08:23.721Z,100.00
2018-11-01T21:10:56.624Z,100.00
2018-11-01T21:13:29.430Z,100.00
2018-11-01T21:16:03.008Z,100.00
2018-11-01T21:18:49.567Z,100.00
2018-11-01T21:21:26.717Z,100.00
2018-11-01T21:24:02.940Z,100.00
2018-11-01T21:26:38.778Z,100.00
2018-11-01T21:29:12.503Z,100.00
2018-11-01T21:31:49.575Z,100.00
2018-11-01T21:34:28.883Z,100.00
2018-11-01T21:37:11.921Z,100.00
2018-11-01T21:39:58.629Z,100.00
2018-11-01T21:42:38.691Z,100.00
2018-11-01T21:45:17.527Z,100.00
2018-11-01T21:47:57.587Z,100.00
2018-11-01T21:50:30.481Z,100.00
2018-11-01T21:53:04.561Z,100.00
2018-11-01T21:55:42.382Z,100.00
2018-11-01T21:58:15.536Z,100.00
2018-11-01T22:00:49.332Z,100.00
2018-11-01T22:03:21.928Z,100.00
2018-11-01T22:05:53.890Z,100.00
2018-11-01T22:08:26.567Z,100.00
2018-11-01T22:10:58.436Z,100.00
2018-11-01T22:13:30.676Z,100.00
2018-11-01T22:16:02.304Z,100.00
2018-11-01T22:18:36.382Z,100.00
2018-11-01T22:21:08.888Z,100.00
2018-11-01T22:23:40.251Z,100.00
2018-11-01T22:26:11.545Z,100.00
2018-11-01T22:28:43.135Z,100.00
2018-11-01T22:31:14.280Z,100.00
2018-11-01T22:33:45.638Z,100.00
2018-11-01T22:36:17.340Z,100.00
2018-11-01T22:38:48.667Z,100.00
2018-11-01T22:41:20.577Z,100.00
2018-11-01T22:43:51.262Z,100.00
2018-11-01T22:46:21.923Z,100.00
2018-11-01T22:48:52.541Z,100.00
2018-11-01T22:51:22.944Z,100.00
2018-11-01T22:53:54.876Z,100.00
2018-11-01T22:56:25.517Z,100.00
2018-11-01T22:58:56.356Z,100.00
2018-11-01T23:01:26.953Z,100.00
2018-11-01T23:03:57.521Z,100.00
2018-11-01T23:06:28.100Z,100.00
2018-11-01T23:08:58.668Z,100.00
2018-11-01T23:11:29.470Z,100.00
2018-11-01T23:14:00.154Z,100.00
2018-11-01T23:16:30.720Z,100.00
2018-11-01T23:19:01.343Z,100.00
2018-11-01T23:21:31.899Z,100.00
2018-11-01T23:24:02.512Z,100.00
2018-11-01T23:26:33.050Z,100.00
2018-11-01T23:29:03.765Z,100.00
2018-11-01T23:31:34.245Z,100.00
2018-11-01T23:34:04.791Z,100.00
2018-11-01T23:36:40.338Z,100.00
2018-11-01T23:39:16.438Z,100.00
2018-11-01T23:41:51.957Z,100.00
2018-11-01T23:44:27.746Z,100.00
2018-11-01T23:47:03.206Z,100.00
2018-11-01T23:49:39.642Z,100.00
2018-11-01T23:52:14.815Z,100.00
2018-11-01T23:54:45.418Z,100.00
2018-11-01T23:57:16.036Z,100.00
2018-11-01T23:59:46.519Z,100.00
